In Arte — V7AS3 — position and weather

sailwx.info

Track history (hours):
 
Tides and Currents Weather Stations Pressure Air Temp Water Temp Dewpoint Dewpoint Depression Visibility Wind Speed Wind Dir Waves Ship Positions

In Arte

Last reported at 2017-Nov-11 13:31 UTC. Time now 2017-Nov-22 02:05 UTC.
Position N 35°58' W 026°05'.
Warning: this ship's position is 10 days out of date.

Length 273 m; draft 6 m.

Type: Cargo ship. MMSI: 538005059.

Date/timePositionNaut miles runAvg speedWind from/ knotsBaromVisibWave heightAir tempDewpointWater temp
2017-Nov-11 13:31N 35°58' W 026°05'011.9
2017-Nov-11 13:30N 35°58' W 026°04'713.2
2017-Nov-11 13:00N 35°59' W 025°56'713.1
2017-Nov-11 12:30N 35°59' W 025°48'612.9
2017-Nov-11 12:00N 35°60' W 025°40'713.0
2017-Nov-11 11:30N 36°00' W 025°32'713.0
2017-Nov-11 11:00N 36°01' W 025°24'612.9
2017-Nov-11 10:30N 36°02' W 025°17'713.1
2017-Nov-11 10:00N 36°02' W 025°08'613.0
2017-Nov-11 09:30N 36°03' W 025°01'612.8
2017-Nov-11 09:00N 36°03' W 024°53'612.7
2017-Nov-11 08:30N 36°04' W 024°45'612.7
2017-Nov-11 08:00N 36°04' W 024°37'612.8
2017-Nov-11 07:30N 36°05' W 024°29'612.9
2017-Nov-11 07:01N 36°05' W 024°21'612.9
2017-Nov-11 06:30N 36°06' W 024°13'613.0
2017-Nov-11 06:00N 36°06' W 024°05'713.0
2017-Nov-11 05:30N 36°07' W 023°57'  
2017-Nov-08 03:49N 35°59' W 005°28'712.3
2017-Nov-08 03:17N 36°01' W 005°20'67 3.1
2017-Nov-07 05:18N 35°45' W 003°59'0 1.3
2017-Nov-07 04:56N 35°45' W 003°59'1 1.3
2017-Nov-07 04:31N 35°45' W 003°59'1 1.2
2017-Nov-07 03:54N 35°46' W 003°58'1 1.3
2017-Nov-07 03:30N 35°47' W 003°58'1 1.3
2017-Nov-07 03:01N 35°47' W 003°58'1 1.4
2017-Nov-07 02:30N 35°48' W 003°57'4 1.2
2017-Nov-06 22:58N 35°52' W 003°56'1 1.1
2017-Nov-06 22:29N 35°52' W 003°56'  
Track history (hours):
 
Tides and Currents Weather Stations Pressure Air Temp Water Temp Dewpoint Dewpoint Depression Visibility Wind Speed Wind Dir Waves Ship Positions

In Arte

Last reported at 2017-Nov-11 13:31 UTC. Time now 2017-Nov-22 02:05 UTC.
Position N 35°58' W 026°05'.
Warning: this ship's position is 10 days out of date.

Length 273 m; draft 6 m.

Type: Cargo ship. MMSI: 538005059.

Date/timePositionNaut miles runAvg speedWind from/ knotsBaromVisibWave heightAir tempDewpointWater temp
2017-Nov-11 13:31N 35°58' W 026°05'011.9
2017-Nov-11 13:30N 35°58' W 026°04'713.2
2017-Nov-11 13:00N 35°59' W 025°56'713.1
2017-Nov-11 12:30N 35°59' W 025°48'612.9
2017-Nov-11 12:00N 35°60' W 025°40'713.0
2017-Nov-11 11:30N 36°00' W 025°32'713.0
2017-Nov-11 11:00N 36°01' W 025°24'612.9
2017-Nov-11 10:30N 36°02' W 025°17'713.1
2017-Nov-11 10:00N 36°02' W 025°08'613.0
2017-Nov-11 09:30N 36°03' W 025°01'612.8
2017-Nov-11 09:00N 36°03' W 024°53'612.7
2017-Nov-11 08:30N 36°04' W 024°45'612.7
2017-Nov-11 08:00N 36°04' W 024°37'612.8
2017-Nov-11 07:30N 36°05' W 024°29'612.9
2017-Nov-11 07:01N 36°05' W 024°21'612.9
2017-Nov-11 06:30N 36°06' W 024°13'613.0
2017-Nov-11 06:00N 36°06' W 024°05'713.0
2017-Nov-11 05:30N 36°07' W 023°57'  
2017-Nov-08 03:49N 35°59' W 005°28'712.3
2017-Nov-08 03:17N 36°01' W 005°20'67 3.1
2017-Nov-07 05:18N 35°45' W 003°59'0 1.3
2017-Nov-07 04:56N 35°45' W 003°59'1 1.3
2017-Nov-07 04:31N 35°45' W 003°59'1 1.2
2017-Nov-07 03:54N 35°46' W 003°58'1 1.3
2017-Nov-07 03:30N 35°47' W 003°58'1 1.3
2017-Nov-07 03:01N 35°47' W 003°58'1 1.4
2017-Nov-07 02:30N 35°48' W 003°57'4 1.2
2017-Nov-06 22:58N 35°52' W 003°56'1 1.1
2017-Nov-06 22:29N 35°52' W 003°56'  

Dump ship's entire track history